sensor_id;sensor_type;location;lat;lon;timestamp;pressure;altitude;pressure_sealevel;temperature;humidity
83448;BME280;73376;45.472;-73.568;2024-01-15T00:02:16;100613.25;;;-4.67;77.01
83448;BME280;73376;45.472;-73.568;2024-01-15T00:04:42;100572.53;;;-4.92;76.98
83448;BME280;73376;45.472;-73.568;2024-01-15T00:07:08;100598.94;;;-4.78;77.24
83448;BME280;73376;45.472;-73.568;2024-01-15T00:09:37;100611.78;;;-4.71;76.40
83448;BME280;73376;45.472;-73.568;2024-01-15T00:12:05;100589.47;;;-4.93;75.96
83448;BME280;73376;45.472;-73.568;2024-01-15T00:14:31;100630.34;;;-4.81;75.35
83448;BME280;73376;45.472;-73.568;2024-01-15T00:16:57;100637.84;;;-4.75;75.28
83448;BME280;73376;45.472;-73.568;2024-01-15T00:19:24;100624.03;;;-4.91;74.72
83448;BME280;73376;45.472;-73.568;2024-01-15T00:21:58;100635.78;;;-4.83;74.08
83448;BME280;73376;45.472;-73.568;2024-01-15T00:24:24;100576.31;;;-5.41;73.45
83448;BME280;73376;45.472;-73.568;2024-01-15T00:26:50;100631.78;;;-4.88;73.41
83448;BME280;73376;45.472;-73.568;2024-01-15T00:29:16;100655.03;;;-4.90;72.72
83448;BME280;73376;45.472;-73.568;2024-01-15T00:31:42;100640.13;;;-4.93;72.61
83448;BME280;73376;45.472;-73.568;2024-01-15T00:34:09;100629.44;;;-5.04;72.42
83448;BME280;73376;45.472;-73.568;2024-01-15T00:36:35;100671.88;;;-4.90;72.11
83448;BME280;73376;45.472;-73.568;2024-01-15T00:39:03;100687.88;;;-4.90;71.52
83448;BME280;73376;45.472;-73.568;2024-01-15T00:41:31;100682.69;;;-4.91;71.69
83448;BME280;73376;45.472;-73.568;2024-01-15T00:43:59;100674.44;;;-4.88;71.76
83448;BME280;73376;45.472;-73.568;2024-01-15T00:46:25;100695.41;;;-4.84;71.19
83448;BME280;73376;45.472;-73.568;2024-01-15T00:48:52;100689.97;;;-4.82;71.15
83448;BME280;73376;45.472;-73.568;2024-01-15T00:51:18;100674.06;;;-4.84;70.99
83448;BME280;73376;45.472;-73.568;2024-01-15T00:53:45;100662.78;;;-4.98;69.36
83448;BME280;73376;45.472;-73.568;2024-01-15T00:56:11;100685.13;;;-4.77;69.60
83448;BME280;73376;45.472;-73.568;2024-01-15T00:58:38;100714.47;;;-4.77;69.17
83448;BME280;73376;45.472;-73.568;2024-01-15T01:01:09;100699.38;;;-4.89;68.66
83448;BME280;73376;45.472;-73.568;2024-01-15T01:03:36;100727.03;;;-4.79;68.75
83448;BME280;73376;45.472;-73.568;2024-01-15T01:06:06;100669.13;;;-5.24;68.41
83448;BME280;73376;45.472;-73.568;2024-01-15T01:08:32;100745.63;;;-4.78;68.06
83448;BME280;73376;45.472;-73.568;2024-01-15T01:11:00;100734.44;;;-4.83;68.67
83448;BME280;73376;45.472;-73.568;2024-01-15T01:13:27;100763.06;;;-4.73;67.57
83448;BME280;73376;45.472;-73.568;2024-01-15T01:15:54;100729.31;;;-4.97;68.18
83448;BME280;73376;45.472;-73.568;2024-01-15T01:18:21;100767.94;;;-4.79;67.79
83448;BME280;73376;45.472;-73.568;2024-01-15T01:20:47;100756.72;;;-4.95;68.26
83448;BME280;73376;45.472;-73.568;2024-01-15T01:23:14;100773.94;;;-4.88;67.20
83448;BME280;73376;45.472;-73.568;2024-01-15T01:25:44;100752.81;;;-5.02;66.65
83448;BME280;73376;45.472;-73.568;2024-01-15T01:28:11;100761.38;;;-5.10;67.59
83448;BME280;73376;45.472;-73.568;2024-01-15T01:30:39;100787.88;;;-4.95;68.00
83448;BME280;73376;45.472;-73.568;2024-01-15T01:33:07;100787.63;;;-4.92;67.79
83448;BME280;73376;45.472;-73.568;2024-01-15T01:35:34;100788.72;;;-4.95;67.61
83448;BME280;73376;45.472;-73.568;2024-01-15T01:38:01;100776.75;;;-5.13;67.94
83448;BME280;73376;45.472;-73.568;2024-01-15T01:40:28;100788.63;;;-5.06;69.03
83448;BME280;73376;45.472;-73.568;2024-01-15T01:42:55;100772.88;;;-5.33;69.68
83448;BME280;73376;45.472;-73.568;2024-01-15T01:45:21;100821.19;;;-5.14;70.31
83448;BME280;73376;45.472;-73.568;2024-01-15T01:47:48;100804.97;;;-5.35;70.56
83448;BME280;73376;45.472;-73.568;2024-01-15T01:50:17;100831.38;;;-5.19;71.14
83448;BME280;73376;45.472;-73.568;2024-01-15T01:52:44;100823.69;;;-5.24;70.88
83448;BME280;73376;45.472;-73.568;2024-01-15T01:55:12;100828.31;;;-5.26;70.77
83448;BME280;73376;45.472;-73.568;2024-01-15T01:57:40;100860.25;;;-5.13;70.91
83448;BME280;73376;45.472;-73.568;2024-01-15T02:00:14;100873.84;;;-5.05;71.19
83448;BME280;73376;45.472;-73.568;2024-01-15T02:02:45;100873.94;;;-5.06;71.49
83448;BME280;73376;45.472;-73.568;2024-01-15T02:05:18;100814.81;;;-5.48;71.82
83448;BME280;73376;45.472;-73.568;2024-01-15T02:07:48;100894.41;;;-5.07;71.66
83448;BME280;73376;45.472;-73.568;2024-01-15T02:10:18;100894.63;;;-5.10;71.92
83448;BME280;73376;45.472;-73.568;2024-01-15T02:12:45;100886.50;;;-5.19;72.10
83448;BME280;73376;45.472;-73.568;2024-01-15T02:15:14;100903.97;;;-5.15;72.22
83448;BME280;73376;45.472;-73.568;2024-01-15T02:18:01;100901.16;;;-5.14;71.92
83448;BME280;73376;45.472;-73.568;2024-01-15T02:20:28;100895.97;;;-5.28;71.91
83448;BME280;73376;45.472;-73.568;2024-01-15T02:23:07;100923.16;;;-5.23;71.20
83448;BME280;73376;45.472;-73.568;2024-01-15T02:25:47;100925.28;;;-5.28;71.12
83448;BME280;73376;45.472;-73.568;2024-01-15T02:28:16;100883.38;;;-5.50;70.57
83448;BME280;73376;45.472;-73.568;2024-01-15T02:30:48;100904.44;;;-5.47;70.58
83448;BME280;73376;45.472;-73.568;2024-01-15T02:33:18;100776.56;;;-6.33;69.81
83448;BME280;73376;45.472;-73.568;2024-01-15T02:35:45;100928.94;;;-5.42;69.88
83448;BME280;73376;45.472;-73.568;2024-01-15T02:38:16;100930.78;;;-5.55;69.90
83448;BME280;73376;45.472;-73.568;2024-01-15T02:40:47;100957.94;;;-5.50;68.96
83448;BME280;73376;45.472;-73.568;2024-01-15T02:43:15;100915.44;;;-5.90;68.32
83448;BME280;73376;45.472;-73.568;2024-01-15T02:45:42;100933.88;;;-5.87;68.30
83448;BME280;73376;45.472;-73.568;2024-01-15T02:48:08;100943.56;;;-5.86;68.36
83448;BME280;73376;45.472;-73.568;2024-01-15T02:50:35;100955.47;;;-5.79;68.45
83448;BME280;73376;45.472;-73.568;2024-01-15T02:53:03;100932.00;;;-5.98;67.86
83448;BME280;73376;45.472;-73.568;2024-01-15T02:55:31;100974.13;;;-5.79;67.39
83448;BME280;73376;45.472;-73.568;2024-01-15T02:57:58;100959.75;;;-5.89;66.94
83448;BME280;73376;45.472;-73.568;2024-01-15T03:00:26;100995.34;;;-5.77;66.24
83448;BME280;73376;45.472;-73.568;2024-01-15T03:02:54;100940.81;;;-6.10;66.48
83448;BME280;73376;45.472;-73.568;2024-01-15T03:05:22;100985.94;;;-5.83;66.06
83448;BME280;73376;45.472;-73.568;2024-01-15T03:07:49;101015.84;;;-5.92;66.22
83448;BME280;73376;45.472;-73.568;2024-01-15T03:10:16;101003.63;;;-5.95;66.54
83448;BME280;73376;45.472;-73.568;2024-01-15T03:12:43;101018.44;;;-5.90;65.53
83448;BME280;73376;45.472;-73.568;2024-01-15T03:15:11;100997.00;;;-6.14;65.51
83448;BME280;73376;45.472;-73.568;2024-01-15T03:17:41;101056.03;;;-5.82;64.86
83448;BME280;73376;45.472;-73.568;2024-01-15T03:20:11;101035.56;;;-5.95;65.86
83448;BME280;73376;45.472;-73.568;2024-01-15T03:22:38;101061.25;;;-5.81;65.37
83448;BME280;73376;45.472;-73.568;2024-01-15T03:25:05;101055.56;;;-5.89;64.60
83448;BME280;73376;45.472;-73.568;2024-01-15T03:27:32;101062.41;;;-5.85;64.68
83448;BME280;73376;45.472;-73.568;2024-01-15T03:29:59;101034.19;;;-6.00;64.51
83448;BME280;73376;45.472;-73.568;2024-01-15T03:32:26;101064.53;;;-5.90;64.32
83448;BME280;73376;45.472;-73.568;2024-01-15T03:34:52;101040.50;;;-6.15;64.75
83448;BME280;73376;45.472;-73.568;2024-01-15T03:37:19;101055.31;;;-6.11;64.67
83448;BME280;73376;45.472;-73.568;2024-01-15T03:39:45;101090.53;;;-5.93;64.48
83448;BME280;73376;45.472;-73.568;2024-01-15T03:42:12;101052.72;;;-6.26;65.17
83448;BME280;73376;45.472;-73.568;2024-01-15T03:44:40;101090.88;;;-6.12;64.79
83448;BME280;73376;45.472;-73.568;2024-01-15T03:47:07;101118.31;;;-5.98;63.60
83448;BME280;73376;45.472;-73.568;2024-01-15T03:49:36;101106.75;;;-6.11;64.16
83448;BME280;73376;45.472;-73.568;2024-01-15T03:52:06;101114.75;;;-6.11;63.66
83448;BME280;73376;45.472;-73.568;2024-01-15T03:54:35;101093.47;;;-6.25;64.06
83448;BME280;73376;45.472;-73.568;2024-01-15T03:57:05;101120.09;;;-6.25;64.12
83448;BME280;73376;45.472;-73.568;2024-01-15T03:59:31;101103.13;;;-6.37;63.29
83448;BME280;73376;45.472;-73.568;2024-01-15T04:01:58;101102.16;;;-6.36;63.38
83448;BME280;73376;45.472;-73.568;2024-01-15T04:04:24;101125.63;;;-6.28;62.72
83448;BME280;73376;45.472;-73.568;2024-01-15T04:06:50;101129.88;;;-6.26;62.77
83448;BME280;73376;45.472;-73.568;2024-01-15T04:09:17;101154.75;;;-6.12;61.94
83448;BME280;73376;45.472;-73.568;2024-01-15T04:11:45;101131.81;;;-6.28;61.83
83448;BME280;73376;45.472;-73.568;2024-01-15T04:14:12;101138.44;;;-6.21;61.98
83448;BME280;73376;45.472;-73.568;2024-01-15T04:16:40;101133.38;;;-6.25;62.28
83448;BME280;73376;45.472;-73.568;2024-01-15T04:19:07;101162.22;;;-6.05;61.67
83448;BME280;73376;45.472;-73.568;2024-01-15T04:21:35;101167.38;;;-6.02;61.53
83448;BME280;73376;45.472;-73.568;2024-01-15T04:24:02;101158.38;;;-6.13;61.53
83448;BME280;73376;45.472;-73.568;2024-01-15T04:26:31;101152.78;;;-6.23;61.46
83448;BME280;73376;45.472;-73.568;2024-01-15T04:28:58;101116.63;;;-6.54;61.37
83448;BME280;73376;45.472;-73.568;2024-01-15T04:31:28;101173.56;;;-6.15;60.94
83448;BME280;73376;45.472;-73.568;2024-01-15T04:33:55;101199.50;;;-6.05;60.97
83448;BME280;73376;45.472;-73.568;2024-01-15T04:36:21;101174.19;;;-6.25;60.71
83448;BME280;73376;45.472;-73.568;2024-01-15T04:38:48;101205.22;;;-6.11;60.82
83448;BME280;73376;45.472;-73.568;2024-01-15T04:41:18;101178.94;;;-6.30;61.09
83448;BME280;73376;45.472;-73.568;2024-01-15T04:43:46;101131.16;;;-6.46;60.76
83448;BME280;73376;45.472;-73.568;2024-01-15T04:46:15;101196.47;;;-6.13;61.17
83448;BME280;73376;45.472;-73.568;2024-01-15T04:48:41;101181.94;;;-6.22;61.46
83448;BME280;73376;45.472;-73.568;2024-01-15T04:51:09;101191.00;;;-6.24;61.14
83448;BME280;73376;45.472;-73.568;2024-01-15T04:53:35;101182.63;;;-6.47;61.54
83448;BME280;73376;45.472;-73.568;2024-01-15T04:56:01;101168.31;;;-6.58;61.50
83448;BME280;73376;45.472;-73.568;2024-01-15T04:58:28;101203.25;;;-6.50;61.18
83448;BME280;73376;45.472;-73.568;2024-01-15T05:00:54;101202.72;;;-6.55;61.10
83448;BME280;73376;45.472;-73.568;2024-01-15T05:03:21;101221.88;;;-6.64;61.58
83448;BME280;73376;45.472;-73.568;2024-01-15T05:05:47;101200.97;;;-6.71;60.51
83448;BME280;73376;45.472;-73.568;2024-01-15T05:08:13;101227.56;;;-6.71;60.80
83448;BME280;73376;45.472;-73.568;2024-01-15T05:10:39;101230.31;;;-6.72;60.90
83448;BME280;73376;45.472;-73.568;2024-01-15T05:13:05;101181.69;;;-7.03;60.58
83448;BME280;73376;45.472;-73.568;2024-01-15T05:15:34;101205.78;;;-6.92;60.89
83448;BME280;73376;45.472;-73.568;2024-01-15T05:18:02;101232.09;;;-6.87;60.96
83448;BME280;73376;45.472;-73.568;2024-01-15T05:20:31;101246.91;;;-6.83;60.87
83448;BME280;73376;45.472;-73.568;2024-01-15T05:22:57;101193.22;;;-7.18;60.84
83448;BME280;73376;45.472;-73.568;2024-01-15T05:25:23;101252.59;;;-6.89;61.02
83448;BME280;73376;45.472;-73.568;2024-01-15T05:27:51;101268.16;;;-6.83;60.92
83448;BME280;73376;45.472;-73.568;2024-01-15T05:30:20;101264.59;;;-6.82;60.78
83448;BME280;73376;45.472;-73.568;2024-01-15T05:32:46;101240.81;;;-6.99;60.58
83448;BME280;73376;45.472;-73.568;2024-01-15T05:35:12;101230.44;;;-7.04;60.81
83448;BME280;73376;45.472;-73.568;2024-01-15T05:37:43;101242.22;;;-6.94;60.54
83448;BME280;73376;45.472;-73.568;2024-01-15T05:40:09;101280.44;;;-6.80;59.92
83448;BME280;73376;45.472;-73.568;2024-01-15T05:42:36;101253.72;;;-6.93;59.83
83448;BME280;73376;45.472;-73.568;2024-01-15T05:45:02;101232.22;;;-7.19;59.94
83448;BME280;73376;45.472;-73.568;2024-01-15T05:47:30;101251.03;;;-7.07;59.92
83448;BME280;73376;45.472;-73.568;2024-01-15T05:49:57;101233.97;;;-7.33;59.73
83448;BME280;73376;45.472;-73.568;2024-01-15T05:52:23;101239.00;;;-7.29;59.54
83448;BME280;73376;45.472;-73.568;2024-01-15T05:54:52;101230.03;;;-7.42;60.05
83448;BME280;73376;45.472;-73.568;2024-01-15T05:57:20;101242.47;;;-7.43;60.10
83448;BME280;73376;45.472;-73.568;2024-01-15T05:59:46;101257.28;;;-7.39;59.82
83448;BME280;73376;45.472;-73.568;2024-01-15T06:02:12;101268.22;;;-7.29;59.29
83448;BME280;73376;45.472;-73.568;2024-01-15T06:04:38;101279.44;;;-7.24;58.65
83448;BME280;73376;45.472;-73.568;2024-01-15T06:07:04;101260.09;;;-7.42;58.84
83448;BME280;73376;45.472;-73.568;2024-01-15T06:09:30;101259.75;;;-7.35;58.83
83448;BME280;73376;45.472;-73.568;2024-01-15T06:11:57;101265.34;;;-7.40;58.75
83448;BME280;73376;45.472;-73.568;2024-01-15T06:14:23;101288.69;;;-7.31;59.12
83448;BME280;73376;45.472;-73.568;2024-01-15T06:16:51;101306.78;;;-7.22;59.08
83448;BME280;73376;45.472;-73.568;2024-01-15T06:19:20;101272.69;;;-7.45;59.11
83448;BME280;73376;45.472;-73.568;2024-01-15T06:21:46;101290.06;;;-7.24;58.44
83448;BME280;73376;45.472;-73.568;2024-01-15T06:24:12;101262.94;;;-7.45;58.23
83448;BME280;73376;45.472;-73.568;2024-01-15T06:26:39;101301.00;;;-7.14;57.82
83448;BME280;73376;45.472;-73.568;2024-01-15T06:29:05;101218.94;;;-7.65;57.96
83448;BME280;73376;45.472;-73.568;2024-01-15T06:31:31;101301.19;;;-7.17;58.09
83448;BME280;73376;45.472;-73.568;2024-01-15T06:33:57;101268.69;;;-7.36;57.75
83448;BME280;73376;45.472;-73.568;2024-01-15T06:36:26;101317.81;;;-7.14;57.58
83448;BME280;73376;45.472;-73.568;2024-01-15T06:38:52;101305.91;;;-7.22;57.19
83448;BME280;73376;45.472;-73.568;2024-01-15T06:41:18;101299.09;;;-7.26;57.55
83448;BME280;73376;45.472;-73.568;2024-01-15T06:43:44;101275.34;;;-7.45;57.19
83448;BME280;73376;45.472;-73.568;2024-01-15T06:46:10;101328.34;;;-7.12;56.49
83448;BME280;73376;45.472;-73.568;2024-01-15T06:48:36;101317.75;;;-7.28;57.15
83448;BME280;73376;45.472;-73.568;2024-01-15T06:51:02;101307.56;;;-7.35;57.64
83448;BME280;73376;45.472;-73.568;2024-01-15T06:53:28;101310.22;;;-7.35;57.74
83448;BME280;73376;45.472;-73.568;2024-01-15T06:55:54;101322.88;;;-7.41;57.42
83448;BME280;73376;45.472;-73.568;2024-01-15T06:58:20;101367.59;;;-7.17;57.67
83448;BME280;73376;45.472;-73.568;2024-01-15T07:00:46;101369.34;;;-7.16;57.93
83448;BME280;73376;45.472;-73.568;2024-01-15T07:03:15;101354.59;;;-7.22;57.36
83448;BME280;73376;45.472;-73.568;2024-01-15T07:05:41;101329.31;;;-7.29;57.44
83448;BME280;73376;45.472;-73.568;2024-01-15T07:08:07;101356.63;;;-7.11;57.85
83448;BME280;73376;45.472;-73.568;2024-01-15T07:10:33;101342.34;;;-7.24;57.63
83448;BME280;73376;45.472;-73.568;2024-01-15T07:12:59;101366.75;;;-7.18;57.63
83448;BME280;73376;45.472;-73.568;2024-01-15T07:15:25;101377.03;;;-7.11;58.60
83448;BME280;73376;45.472;-73.568;2024-01-15T07:17:51;101342.09;;;-7.35;58.38
83448;BME280;73376;45.472;-73.568;2024-01-15T07:20:17;101360.50;;;-7.32;57.18
83448;BME280;73376;45.472;-73.568;2024-01-15T07:22:45;101399.31;;;-7.14;57.06
83448;BME280;73376;45.472;-73.568;2024-01-15T07:25:11;101407.38;;;-7.16;57.13
83448;BME280;73376;45.472;-73.568;2024-01-15T07:27:43;101420.91;;;-7.20;56.34
83448;BME280;73376;45.472;-73.568;2024-01-15T07:30:13;101422.81;;;-7.22;56.33
83448;BME280;73376;45.472;-73.568;2024-01-15T07:32:39;101395.72;;;-7.45;56.55
83448;BME280;73376;45.472;-73.568;2024-01-15T07:35:06;101420.59;;;-7.30;57.07
83448;BME280;73376;45.472;-73.568;2024-01-15T07:37:32;101423.25;;;-7.30;56.71
83448;BME280;73376;45.472;-73.568;2024-01-15T07:39:59;101418.78;;;-7.29;56.68
83448;BME280;73376;45.472;-73.568;2024-01-15T07:42:28;101425.81;;;-7.28;57.35
83448;BME280;73376;45.472;-73.568;2024-01-15T07:44:54;101422.31;;;-7.29;57.06
83448;BME280;73376;45.472;-73.568;2024-01-15T07:47:20;101437.06;;;-7.23;57.31
83448;BME280;73376;45.472;-73.568;2024-01-15T07:49:46;101419.03;;;-7.34;56.95
83448;BME280;73376;45.472;-73.568;2024-01-15T07:52:12;101410.72;;;-7.44;56.78
83448;BME280;73376;45.472;-73.568;2024-01-15T07:54:39;101448.69;;;-7.26;56.40
83448;BME280;73376;45.472;-73.568;2024-01-15T07:57:07;101427.41;;;-7.42;56.37
83448;BME280;73376;45.472;-73.568;2024-01-15T07:59:35;101447.06;;;-7.28;56.92
83448;BME280;73376;45.472;-73.568;2024-01-15T08:02:01;101437.19;;;-7.42;56.94
83448;BME280;73376;45.472;-73.568;2024-01-15T08:04:27;101419.34;;;-7.56;56.90
83448;BME280;73376;45.472;-73.568;2024-01-15T08:06:53;101416.97;;;-7.60;57.05
83448;BME280;73376;45.472;-73.568;2024-01-15T08:09:19;101468.22;;;-7.27;57.08
83448;BME280;73376;45.472;-73.568;2024-01-15T08:11:45;101473.78;;;-7.31;57.05
83448;BME280;73376;45.472;-73.568;2024-01-15T08:14:11;101467.03;;;-7.21;57.25
83448;BME280;73376;45.472;-73.568;2024-01-15T08:16:38;101429.91;;;-7.39;56.98
83448;BME280;73376;45.472;-73.568;2024-01-15T08:19:04;101414.41;;;-7.46;56.83
83448;BME280;73376;45.472;-73.568;2024-01-15T08:21:31;101478.97;;;-7.12;57.15
83448;BME280;73376;45.472;-73.568;2024-01-15T08:24:01;101471.22;;;-7.17;57.33
83448;BME280;73376;45.472;-73.568;2024-01-15T08:26:32;101481.47;;;-7.09;57.39
83448;BME280;73376;45.472;-73.568;2024-01-15T08:28:58;101421.75;;;-7.51;57.05
83448;BME280;73376;45.472;-73.568;2024-01-15T08:31:25;101454.06;;;-7.27;57.77
83448;BME280;73376;45.472;-73.568;2024-01-15T08:33:51;101468.16;;;-7.09;57.69
83448;BME280;73376;45.472;-73.568;2024-01-15T08:36:18;101455.75;;;-7.09;57.86
83448;BME280;73376;45.472;-73.568;2024-01-15T08:38:44;101475.44;;;-6.97;58.39
83448;BME280;73376;45.472;-73.568;2024-01-15T08:41:10;101451.44;;;-7.11;59.00
83448;BME280;73376;45.472;-73.568;2024-01-15T08:43:36;101470.13;;;-6.97;59.21
83448;BME280;73376;45.472;-73.568;2024-01-15T08:46:05;101478.63;;;-6.91;59.72
83448;BME280;73376;45.472;-73.568;2024-01-15T08:48:31;101434.72;;;-7.14;59.81
83448;BME280;73376;45.472;-73.568;2024-01-15T08:50:57;101447.75;;;-7.09;59.92
83448;BME280;73376;45.472;-73.568;2024-01-15T08:53:23;101465.66;;;-6.97;60.13
83448;BME280;73376;45.472;-73.568;2024-01-15T08:55:51;101495.09;;;-6.84;59.98
83448;BME280;73376;45.472;-73.568;2024-01-15T08:58:17;101463.00;;;-6.97;59.94
83448;BME280;73376;45.472;-73.568;2024-01-15T09:00:46;101475.97;;;-6.91;59.72
83448;BME280;73376;45.472;-73.568;2024-01-15T09:03:14;101493.63;;;-6.90;60.24
83448;BME280;73376;45.472;-73.568;2024-01-15T09:05:40;101469.25;;;-7.14;60.04
83448;BME280;73376;45.472;-73.568;2024-01-15T09:08:06;101439.59;;;-7.22;60.18
83448;BME280;73376;45.472;-73.568;2024-01-15T09:10:32;101456.06;;;-7.15;60.29
83448;BME280;73376;45.472;-73.568;2024-01-15T09:12:58;101487.28;;;-7.03;60.28
83448;BME280;73376;45.472;-73.568;2024-01-15T09:15:26;101448.25;;;-7.18;60.28
83448;BME280;73376;45.472;-73.568;2024-01-15T09:17:53;101468.41;;;-7.14;60.68
83448;BME280;73376;45.472;-73.568;2024-01-15T09:20:19;101473.81;;;-7.16;60.60
83448;BME280;73376;45.472;-73.568;2024-01-15T09:22:45;101513.59;;;-6.98;60.56
83448;BME280;73376;45.472;-73.568;2024-01-15T09:25:11;101505.63;;;-6.98;60.71
83448;BME280;73376;45.472;-73.568;2024-01-15T09:27:37;101463.53;;;-7.22;60.78
83448;BME280;73376;45.472;-73.568;2024-01-15T09:30:04;101489.84;;;-7.01;60.66
83448;BME280;73376;45.472;-73.568;2024-01-15T09:32:30;101480.50;;;-7.08;60.90
83448;BME280;73376;45.472;-73.568;2024-01-15T09:35:01;101474.78;;;-7.17;60.80
83448;BME280;73376;45.472;-73.568;2024-01-15T09:37:27;101491.91;;;-7.06;60.87
83448;BME280;73376;45.472;-73.568;2024-01-15T09:39:55;101388.84;;;-7.65;60.88
83448;BME280;73376;45.472;-73.568;2024-01-15T09:42:25;101498.63;;;-6.99;60.67
83448;BME280;73376;45.472;-73.568;2024-01-15T09:44:51;101479.81;;;-7.12;60.60
83448;BME280;73376;45.472;-73.568;2024-01-15T09:47:19;101497.31;;;-7.08;60.34
83448;BME280;73376;45.472;-73.568;2024-01-15T09:49:47;101512.06;;;-7.02;60.41
83448;BME280;73376;45.472;-73.568;2024-01-15T09:52:14;101501.75;;;-7.08;60.57
83448;BME280;73376;45.472;-73.568;2024-01-15T09:54:44;101504.44;;;-7.08;60.56
83448;BME280;73376;45.472;-73.568;2024-01-15T09:57:10;101512.97;;;-7.03;60.91
83448;BME280;73376;45.472;-73.568;2024-01-15T09:59:37;101517.38;;;-7.02;61.22
83448;BME280;73376;45.472;-73.568;2024-01-15T10:02:06;101525.09;;;-6.98;61.26
83448;BME280;73376;45.472;-73.568;2024-01-15T10:04:32;101497.56;;;-7.12;60.78
83448;BME280;73376;45.472;-73.568;2024-01-15T10:07:00;101527.69;;;-6.96;60.88
83448;BME280;73376;45.472;-73.568;2024-01-15T10:09:29;101542.50;;;-6.92;60.74
83448;BME280;73376;45.472;-73.568;2024-01-15T10:11:56;101546.03;;;-6.92;60.80
83448;BME280;73376;45.472;-73.568;2024-01-15T10:14:22;101509.75;;;-7.08;60.76
83448;BME280;73376;45.472;-73.568;2024-01-15T10:16:50;101537.19;;;-6.92;60.76
83448;BME280;73376;45.472;-73.568;2024-01-15T10:19:16;101535.13;;;-6.87;60.65
83448;BME280;73376;45.472;-73.568;2024-01-15T10:21:42;101516.44;;;-7.01;60.23
83448;BME280;73376;45.472;-73.568;2024-01-15T10:24:08;101533.06;;;-6.98;60.34
83448;BME280;73376;45.472;-73.568;2024-01-15T10:26:36;101496.03;;;-7.17;60.13
83448;BME280;73376;45.472;-73.568;2024-01-15T10:29:05;101538.31;;;-6.96;59.98
83448;BME280;73376;45.472;-73.568;2024-01-15T10:31:32;101538.38;;;-6.98;59.92
83448;BME280;73376;45.472;-73.568;2024-01-15T10:34:11;101536.56;;;-6.97;59.98
83448;BME280;73376;45.472;-73.568;2024-01-15T10:36:41;101524.81;;;-7.09;60.18
83448;BME280;73376;45.472;-73.568;2024-01-15T10:39:13;101535.72;;;-6.98;60.17
83448;BME280;73376;45.472;-73.568;2024-01-15T10:41:41;101550.38;;;-6.91;60.19
83448;BME280;73376;45.472;-73.568;2024-01-15T10:44:08;101552.19;;;-6.91;60.42
83448;BME280;73376;45.472;-73.568;2024-01-15T10:46:37;101501.91;;;-7.27;60.60
83448;BME280;73376;45.472;-73.568;2024-01-15T10:49:07;101539.56;;;-7.03;60.76
83448;BME280;73376;45.472;-73.568;2024-01-15T10:51:34;101551.06;;;-7.03;60.88
83448;BME280;73376;45.472;-73.568;2024-01-15T10:54:01;101518.53;;;-7.24;61.11
83448;BME280;73376;45.472;-73.568;2024-01-15T10:56:28;101555.00;;;-6.94;61.44
83448;BME280;73376;45.472;-73.568;2024-01-15T10:58:56;101562.25;;;-6.96;61.79
83448;BME280;73376;45.472;-73.568;2024-01-15T11:01:23;101546.16;;;-7.10;61.87
83448;BME280;73376;45.472;-73.568;2024-01-15T11:03:51;101569.16;;;-6.94;61.80
83448;BME280;73376;45.472;-73.568;2024-01-15T11:06:19;101589.16;;;-6.86;62.00
83448;BME280;73376;45.472;-73.568;2024-01-15T11:08:49;101588.56;;;-6.92;62.17
83448;BME280;73376;45.472;-73.568;2024-01-15T11:11:18;101561.25;;;-7.11;62.49
83448;BME280;73376;45.472;-73.568;2024-01-15T11:13:47;101553.53;;;-7.16;62.79
83448;BME280;73376;45.472;-73.568;2024-01-15T11:16:15;101610.78;;;-6.93;63.10
83448;BME280;73376;45.472;-73.568;2024-01-15T11:18:43;101591.00;;;-7.04;63.39
83448;BME280;73376;45.472;-73.568;2024-01-15T11:23:45;101612.09;;;-7.01;63.97
83448;BME280;73376;45.472;-73.568;2024-01-15T11:29:08;101610.56;;;-7.05;64.24
83448;BME280;73376;45.472;-73.568;2024-01-15T11:34:07;101605.94;;;-7.02;63.96
83448;BME280;73376;45.472;-73.568;2024-01-15T11:42:00;101619.06;;;-6.99;64.18
83448;BME280;73376;45.472;-73.568;2024-01-15T11:44:32;101613.53;;;-7.11;64.03
83448;BME280;73376;45.472;-73.568;2024-01-15T11:47:05;101635.00;;;-6.99;64.20
83448;BME280;73376;45.472;-73.568;2024-01-15T11:52:25;101625.13;;;-7.12;63.40
83448;BME280;73376;45.472;-73.568;2024-01-15T11:55:00;101645.56;;;-6.97;63.54
83448;BME280;73376;45.472;-73.568;2024-01-15T11:57:46;101634.38;;;-7.04;63.08
83448;BME280;73376;45.472;-73.568;2024-01-15T12:00:15;101651.66;;;-6.95;62.72
83448;BME280;73376;45.472;-73.568;2024-01-15T12:02:50;101628.31;;;-7.06;62.30
83448;BME280;73376;45.472;-73.568;2024-01-15T12:05:20;101645.50;;;-6.96;62.27
83448;BME280;73376;45.472;-73.568;2024-01-15T12:07:48;101657.72;;;-6.93;62.07
83448;BME280;73376;45.472;-73.568;2024-01-15T12:10:21;101643.69;;;-6.95;61.84
83448;BME280;73376;45.472;-73.568;2024-01-15T12:13:04;101649.00;;;-6.95;61.84
83448;BME280;73376;45.472;-73.568;2024-01-15T12:15:31;101624.78;;;-7.06;61.12
83448;BME280;73376;45.472;-73.568;2024-01-15T12:17:59;101640.22;;;-6.97;61.36
83448;BME280;73376;45.472;-73.568;2024-01-15T12:20:31;101653.38;;;-6.94;61.47
83448;BME280;73376;45.472;-73.568;2024-01-15T12:23:00;101655.88;;;-6.91;60.78
83448;BME280;73376;45.472;-73.568;2024-01-15T12:25:29;101657.41;;;-6.87;59.70
83448;BME280;73376;45.472;-73.568;2024-01-15T12:27:56;101626.81;;;-7.11;59.95
83448;BME280;73376;45.472;-73.568;2024-01-15T12:30:22;101634.38;;;-7.04;59.32
83448;BME280;73376;45.472;-73.568;2024-01-15T12:32:49;101626.22;;;-7.17;59.35
83448;BME280;73376;45.472;-73.568;2024-01-15T12:35:17;101622.53;;;-7.14;59.89
83448;BME280;73376;45.472;-73.568;2024-01-15T12:37:43;101656.81;;;-6.92;59.40
83448;BME280;73376;45.472;-73.568;2024-01-15T12:40:12;101677.75;;;-6.86;59.27
83448;BME280;73376;45.472;-73.568;2024-01-15T12:42:44;101662.03;;;-6.91;59.19
83448;BME280;73376;45.472;-73.568;2024-01-15T12:45:12;101623.91;;;-7.07;59.28
83448;BME280;73376;45.472;-73.568;2024-01-15T12:47:40;101656.56;;;-6.87;58.73
83448;BME280;73376;45.472;-73.568;2024-01-15T12:50:11;101657.50;;;-6.88;58.75